sensor_id;sensor_type;location;lat;lon;timestamp;temperature;humidity
48264;DHT22;34086;51.076;13.722;2022-12-10T00:00:00;2.60;99.90
48264;DHT22;34086;51.076;13.722;2022-12-10T00:01:10;2.60;99.90
48264;DHT22;34086;51.076;13.722;2022-12-10T00:02:11;2.60;99.90
48264;DHT22;34086;51.076;13.722;2022-12-10T00:03:11;2.60;99.90
48264;DHT22;34086;51.076;13.722;2022-12-10T00:04:13;2.60;99.90
48264;DHT22;34086;51.076;13.722;2022-12-10T00:05:14;2.60;99.90
48264;DHT22;34086;51.076;13.722;2022-12-10T00:06:21;2.60;99.90
48264;DHT22;34086;51.076;13.722;2022-12-10T00:07:22;2.60;99.90
48264;DHT22;34086;51.076;13.722;2022-12-10T00:08:22;2.50;99.90
48264;DHT22;34086;51.076;13.722;2022-12-10T00:09:23;2.50;99.90
48264;DHT22;34086;51.076;13.722;2022-12-10T00:10:24;2.50;99.90
48264;DHT22;34086;51.076;13.722;2022-12-10T00:11:24;2.50;99.90
48264;DHT22;34086;51.076;13.722;2022-12-10T00:12:25;2.50;99.90
48264;DHT22;34086;51.076;13.722;2022-12-10T00:13:26;2.50;99.90
48264;DHT22;34086;51.076;13.722;2022-12-10T00:14:27;2.60;99.90
48264;DHT22;34086;51.076;13.722;2022-12-10T00:15:27;2.60;99.90
48264;DHT22;34086;51.076;13.722;2022-12-10T00:16:28;2.60;99.90
48264;DHT22;34086;51.076;13.722;2022-12-10T00:17:31;2.50;99.90
48264;DHT22;34086;51.076;13.722;2022-12-10T00:18:33;2.60;99.90
48264;DHT22;34086;51.076;13.722;2022-12-10T00:19:34;2.60;99.90
48264;DHT22;34086;51.076;13.722;2022-12-10T00:20:36;2.60;99.90
48264;DHT22;34086;51.076;13.722;2022-12-10T00:21:37;2.60;99.90
48264;DHT22;34086;51.076;13.722;2022-12-10T00:22:38;2.60;99.90
48264;DHT22;34086;51.076;13.722;2022-12-10T00:23:39;2.50;99.90
48264;DHT22;34086;51.076;13.722;2022-12-10T00:24:40;2.50;99.90
48264;DHT22;34086;51.076;13.722;2022-12-10T00:25:40;2.50;99.90
48264;DHT22;34086;51.076;13.722;2022-12-10T00:26:41;2.50;99.90
48264;DHT22;34086;51.076;13.722;2022-12-10T00:27:42;2.50;99.90
48264;DHT22;34086;51.076;13.722;2022-12-10T00:28:44;2.50;99.90
48264;DHT22;34086;51.076;13.722;2022-12-10T00:29:45;2.50;99.90
48264;DHT22;34086;51.076;13.722;2022-12-10T00:30:46;2.50;99.90
48264;DHT22;34086;51.076;13.722;2022-12-10T00:31:46;2.50;99.90
48264;DHT22;34086;51.076;13.722;2022-12-10T00:32:47;2.60;99.90
48264;DHT22;34086;51.076;13.722;2022-12-10T00:33:48;2.60;99.90
48264;DHT22;34086;51.076;13.722;2022-12-10T00:34:52;2.50;99.90
48264;DHT22;34086;51.076;13.722;2022-12-10T00:36:00;2.50;99.90
48264;DHT22;34086;51.076;13.722;2022-12-10T00:37:01;2.50;99.90
48264;DHT22;34086;51.076;13.722;2022-12-10T00:38:03;2.50;99.90
48264;DHT22;34086;51.076;13.722;2022-12-10T00:39:04;2.50;99.90
48264;DHT22;34086;51.076;13.722;2022-12-10T00:40:05;2.50;99.90
48264;DHT22;34086;51.076;13.722;2022-12-10T00:41:07;2.50;99.90
48264;DHT22;34086;51.076;13.722;2022-12-10T00:42:08;2.50;99.90
48264;DHT22;34086;51.076;13.722;2022-12-10T00:43:09;2.50;99.90
48264;DHT22;34086;51.076;13.722;2022-12-10T00:44:10;2.50;99.90
48264;DHT22;34086;51.076;13.722;2022-12-10T00:45:12;2.60;99.90
48264;DHT22;34086;51.076;13.722;2022-12-10T00:46:14;2.60;99.90
48264;DHT22;34086;51.076;13.722;2022-12-10T00:47:15;2.60;99.90
48264;DHT22;34086;51.076;13.722;2022-12-10T00:48:16;2.50;99.90
48264;DHT22;34086;51.076;13.722;2022-12-10T00:49:17;2.50;99.90
48264;DHT22;34086;51.076;13.722;2022-12-10T00:50:17;2.50;99.90
48264;DHT22;34086;51.076;13.722;2022-12-10T00:51:20;2.50;99.90
48264;DHT22;34086;51.076;13.722;2022-12-10T00:52:21;2.50;99.90
48264;DHT22;34086;51.076;13.722;2022-12-10T00:53:23;2.50;99.90
48264;DHT22;34086;51.076;13.722;2022-12-10T00:54:24;2.50;99.90
48264;DHT22;34086;51.076;13.722;2022-12-10T00:55:25;2.50;99.90
48264;DHT22;34086;51.076;13.722;2022-12-10T00:56:29;2.50;99.90
48264;DHT22;34086;51.076;13.722;2022-12-10T00:57:30;2.50;99.90
48264;DHT22;34086;51.076;13.722;2022-12-10T00:58:32;2.50;99.90
48264;DHT22;34086;51.076;13.722;2022-12-10T00:59:33;2.50;99.90
48264;DHT22;34086;51.076;13.722;2022-12-10T01:00:34;2.50;99.90
48264;DHT22;34086;51.076;13.722;2022-12-10T01:01:37;2.50;99.90
48264;DHT22;34086;51.076;13.722;2022-12-10T01:02:38;2.50;99.90
48264;DHT22;34086;51.076;13.722;2022-12-10T01:03:40;2.50;99.90
48264;DHT22;34086;51.076;13.722;2022-12-10T01:04:41;2.50;99.90
48264;DHT22;34086;51.076;13.722;2022-12-10T01:05:42;2.50;99.90
48264;DHT22;34086;51.076;13.722;2022-12-10T01:06:53;2.50;99.90
48264;DHT22;34086;51.076;13.722;2022-12-10T01:07:54;2.50;99.90
48264;DHT22;34086;51.076;13.722;2022-12-10T01:08:59;2.50;99.90
48264;DHT22;34086;51.076;13.722;2022-12-10T01:10:01;2.50;99.90
48264;DHT22;34086;51.076;13.722;2022-12-10T01:11:01;2.50;99.90
48264;DHT22;34086;51.076;13.722;2022-12-10T01:12:03;2.50;99.90
48264;DHT22;34086;51.076;13.722;2022-12-10T01:13:04;2.50;99.90
48264;DHT22;34086;51.076;13.722;2022-12-10T01:14:13;2.50;99.90
48264;DHT22;34086;51.076;13.722;2022-12-10T01:15:14;2.50;99.90
48264;DHT22;34086;51.076;13.722;2022-12-10T01:16:17;2.50;99.90
48264;DHT22;34086;51.076;13.722;2022-12-10T01:17:19;2.50;99.90
48264;DHT22;34086;51.076;13.722;2022-12-10T01:18:21;2.50;99.90
48264;DHT22;34086;51.076;13.722;2022-12-10T01:19:22;2.50;99.90
48264;DHT22;34086;51.076;13.722;2022-12-10T01:20:23;2.40;99.90
48264;DHT22;34086;51.076;13.722;2022-12-10T01:21:25;2.50;99.90
48264;DHT22;34086;51.076;13.722;2022-12-10T01:22:26;2.40;99.90
48264;DHT22;34086;51.076;13.722;2022-12-10T01:23:27;2.40;99.90
48264;DHT22;34086;51.076;13.722;2022-12-10T01:24:28;2.50;99.90
48264;DHT22;34086;51.076;13.722;2022-12-10T01:25:30;2.50;99.90
48264;DHT22;34086;51.076;13.722;2022-12-10T01:26:33;2.50;99.90
48264;DHT22;34086;51.076;13.722;2022-12-10T01:27:35;2.50;99.90
48264;DHT22;34086;51.076;13.722;2022-12-10T01:28:37;2.40;99.90
48264;DHT22;34086;51.076;13.722;2022-12-10T01:29:38;2.40;99.90
48264;DHT22;34086;51.076;13.722;2022-12-10T01:30:39;2.40;99.90
48264;DHT22;34086;51.076;13.722;2022-12-10T01:31:40;2.50;99.90
48264;DHT22;34086;51.076;13.722;2022-12-10T01:32:40;2.50;99.90
48264;DHT22;34086;51.076;13.722;2022-12-10T01:33:42;2.40;99.90
48264;DHT22;34086;51.076;13.722;2022-12-10T01:34:42;2.40;99.90
48264;DHT22;34086;51.076;13.722;2022-12-10T01:35:43;2.40;99.90
48264;DHT22;34086;51.076;13.722;2022-12-10T01:36:47;2.40;99.90
48264;DHT22;34086;51.076;13.722;2022-12-10T01:37:49;2.40;99.90
48264;DHT22;34086;51.076;13.722;2022-12-10T01:38:50;2.40;99.90
48264;DHT22;34086;51.076;13.722;2022-12-10T01:39:51;2.30;99.90
48264;DHT22;34086;51.076;13.722;2022-12-10T01:40:52;2.30;99.90
48264;DHT22;34086;51.076;13.722;2022-12-10T01:41:55;2.30;99.90
48264;DHT22;34086;51.076;13.722;2022-12-10T01:42:56;2.30;99.90
48264;DHT22;34086;51.076;13.722;2022-12-10T01:44:01;2.30;99.90
48264;DHT22;34086;51.076;13.722;2022-12-10T01:45:07;2.30;99.90
48264;DHT22;34086;51.076;13.722;2022-12-10T01:46:08;2.20;99.90
48264;DHT22;34086;51.076;13.722;2022-12-10T01:47:10;2.20;99.90
48264;DHT22;34086;51.076;13.722;2022-12-10T01:48:11;2.30;99.90
48264;DHT22;34086;51.076;13.722;2022-12-10T01:49:20;2.30;99.90
48264;DHT22;34086;51.076;13.722;2022-12-10T01:50:21;2.30;99.90
48264;DHT22;34086;51.076;13.722;2022-12-10T01:51:23;2.30;99.90
48264;DHT22;34086;51.076;13.722;2022-12-10T01:52:24;2.30;99.90
48264;DHT22;34086;51.076;13.722;2022-12-10T01:53:25;2.30;99.90
48264;DHT22;34086;51.076;13.722;2022-12-10T01:54:32;2.30;99.90
48264;DHT22;34086;51.076;13.722;2022-12-10T01:56:43;2.30;99.90
48264;DHT22;34086;51.076;13.722;2022-12-10T01:57:44;2.40;99.90
48264;DHT22;34086;51.076;13.722;2022-12-10T01:58:47;2.30;99.90
48264;DHT22;34086;51.076;13.722;2022-12-10T01:59:52;2.30;99.90
48264;DHT22;34086;51.076;13.722;2022-12-10T02:01:33;2.30;99.90
48264;DHT22;34086;51.076;13.722;2022-12-10T02:02:53;2.30;99.90
48264;DHT22;34086;51.076;13.722;2022-12-10T02:08:44;2.30;99.90
48264;DHT22;34086;51.076;13.722;2022-12-10T02:12:23;2.30;99.90
48264;DHT22;34086;51.076;13.722;2022-12-10T02:14:57;2.30;99.90
48264;DHT22;34086;51.076;13.722;2022-12-10T02:17:19;2.30;99.90
48264;DHT22;34086;51.076;13.722;2022-12-10T02:18:26;2.30;99.90
48264;DHT22;34086;51.076;13.722;2022-12-10T02:20:54;2.30;99.90
48264;DHT22;34086;51.076;13.722;2022-12-10T02:21:58;2.30;99.90
48264;DHT22;34086;51.076;13.722;2022-12-10T02:23:03;2.30;99.90
48264;DHT22;34086;51.076;13.722;2022-12-10T02:24:07;2.30;99.90
48264;DHT22;34086;51.076;13.722;2022-12-10T02:25:11;2.30;99.90
48264;DHT22;34086;51.076;13.722;2022-12-10T02:26:22;2.30;99.90
48264;DHT22;34086;51.076;13.722;2022-12-10T02:27:50;2.30;99.90
48264;DHT22;34086;51.076;13.722;2022-12-10T02:29:13;2.30;99.90
48264;DHT22;34086;51.076;13.722;2022-12-10T02:30:15;2.30;99.90
48264;DHT22;34086;51.076;13.722;2022-12-10T02:31:21;2.30;99.90
48264;DHT22;34086;51.076;13.722;2022-12-10T02:32:32;2.30;99.90
48264;DHT22;34086;51.076;13.722;2022-12-10T02:33:38;2.30;99.90
48264;DHT22;34086;51.076;13.722;2022-12-10T02:34:47;2.30;99.90
48264;DHT22;34086;51.076;13.722;2022-12-10T02:35:50;2.30;99.90
48264;DHT22;34086;51.076;13.722;2022-12-10T02:36:53;2.30;99.90
48264;DHT22;34086;51.076;13.722;2022-12-10T02:38:10;2.30;99.90
48264;DHT22;34086;51.076;13.722;2022-12-10T02:39:19;2.20;99.90
48264;DHT22;34086;51.076;13.722;2022-12-10T02:40:30;2.20;99.90
48264;DHT22;34086;51.076;13.722;2022-12-10T02:41:36;2.30;99.90
48264;DHT22;34086;51.076;13.722;2022-12-10T02:42:41;2.20;99.90
48264;DHT22;34086;51.076;13.722;2022-12-10T02:43:45;2.20;99.90
48264;DHT22;34086;51.076;13.722;2022-12-10T02:44:48;2.20;99.90
48264;DHT22;34086;51.076;13.722;2022-12-10T02:45:55;2.20;99.90
48264;DHT22;34086;51.076;13.722;2022-12-10T02:46:58;2.20;99.90
48264;DHT22;34086;51.076;13.722;2022-12-10T02:48:06;2.20;99.90
48264;DHT22;34086;51.076;13.722;2022-12-10T02:49:13;2.30;99.90
48264;DHT22;34086;51.076;13.722;2022-12-10T02:50:16;2.30;99.90
48264;DHT22;34086;51.076;13.722;2022-12-10T02:51:18;2.30;99.90
48264;DHT22;34086;51.076;13.722;2022-12-10T02:52:20;2.30;99.90
48264;DHT22;34086;51.076;13.722;2022-12-10T02:53:25;2.30;99.90
48264;DHT22;34086;51.076;13.722;2022-12-10T02:54:46;2.30;99.90
48264;DHT22;34086;51.076;13.722;2022-12-10T02:57:13;2.30;99.90
48264;DHT22;34086;51.076;13.722;2022-12-10T02:59:36;2.30;99.90
48264;DHT22;34086;51.076;13.722;2022-12-10T03:00:51;2.30;99.90
48264;DHT22;34086;51.076;13.722;2022-12-10T03:02:11;2.20;99.90
48264;DHT22;34086;51.076;13.722;2022-12-10T03:03:34;2.20;99.90
48264;DHT22;34086;51.076;13.722;2022-12-10T03:08:50;2.30;99.90
48264;DHT22;34086;51.076;13.722;2022-12-10T03:09:55;2.20;99.90
48264;DHT22;34086;51.076;13.722;2022-12-10T03:12:31;2.30;99.90
48264;DHT22;34086;51.076;13.722;2022-12-10T03:13:37;2.30;99.90
48264;DHT22;34086;51.076;13.722;2022-12-10T03:14:40;2.20;99.90
48264;DHT22;34086;51.076;13.722;2022-12-10T03:15:42;2.20;99.90
48264;DHT22;34086;51.076;13.722;2022-12-10T03:16:55;2.20;99.90
48264;DHT22;34086;51.076;13.722;2022-12-10T03:17:57;2.20;99.90
48264;DHT22;34086;51.076;13.722;2022-12-10T03:19:03;2.20;99.90
48264;DHT22;34086;51.076;13.722;2022-12-10T03:20:07;2.10;99.90
48264;DHT22;34086;51.076;13.722;2022-12-10T03:21:09;2.20;99.90
48264;DHT22;34086;51.076;13.722;2022-12-10T03:22:12;2.20;99.90
48264;DHT22;34086;51.076;13.722;2022-12-10T03:23:16;2.20;99.90
48264;DHT22;34086;51.076;13.722;2022-12-10T03:24:17;2.20;99.90
48264;DHT22;34086;51.076;13.722;2022-12-10T03:25:24;2.20;99.90
48264;DHT22;34086;51.076;13.722;2022-12-10T03:26:25;2.20;99.90
48264;DHT22;34086;51.076;13.722;2022-12-10T03:27:27;2.30;99.90
48264;DHT22;34086;51.076;13.722;2022-12-10T03:28:32;2.20;99.90
48264;DHT22;34086;51.076;13.722;2022-12-10T03:29:56;2.30;99.90
48264;DHT22;34086;51.076;13.722;2022-12-10T03:30:57;2.20;99.90
48264;DHT22;34086;51.076;13.722;2022-12-10T03:31:59;2.20;99.90
48264;DHT22;34086;51.076;13.722;2022-12-10T03:33:01;2.20;99.90
48264;DHT22;34086;51.076;13.722;2022-12-10T03:34:02;2.20;99.90
48264;DHT22;34086;51.076;13.722;2022-12-10T03:35:05;2.20;99.90
48264;DHT22;34086;51.076;13.722;2022-12-10T03:36:07;2.20;99.90
48264;DHT22;34086;51.076;13.722;2022-12-10T03:37:09;2.20;99.90
48264;DHT22;34086;51.076;13.722;2022-12-10T03:38:11;2.20;99.90
48264;DHT22;34086;51.076;13.722;2022-12-10T03:39:13;2.30;99.90
48264;DHT22;34086;51.076;13.722;2022-12-10T03:40:14;2.20;99.90
48264;DHT22;34086;51.076;13.722;2022-12-10T03:41:15;2.20;99.90
48264;DHT22;34086;51.076;13.722;2022-12-10T03:42:15;2.30;99.90
48264;DHT22;34086;51.076;13.722;2022-12-10T03:43:16;2.20;99.90
48264;DHT22;34086;51.076;13.722;2022-12-10T03:44:37;2.30;99.90
48264;DHT22;34086;51.076;13.722;2022-12-10T03:45:39;2.30;99.90
48264;DHT22;34086;51.076;13.722;2022-12-10T03:46:40;2.20;99.90
48264;DHT22;34086;51.076;13.722;2022-12-10T03:47:41;2.20;99.90
48264;DHT22;34086;51.076;13.722;2022-12-10T03:48:42;2.30;99.90
48264;DHT22;34086;51.076;13.722;2022-12-10T03:49:43;2.20;99.90
48264;DHT22;34086;51.076;13.722;2022-12-10T03:50:44;2.20;99.90
48264;DHT22;34086;51.076;13.722;2022-12-10T03:51:44;2.20;99.90
48264;DHT22;34086;51.076;13.722;2022-12-10T03:52:45;2.10;99.90
48264;DHT22;34086;51.076;13.722;2022-12-10T03:53:46;2.20;99.90
48264;DHT22;34086;51.076;13.722;2022-12-10T03:54:49;2.20;99.90
48264;DHT22;34086;51.076;13.722;2022-12-10T03:55:49;2.20;99.90
48264;DHT22;34086;51.076;13.722;2022-12-10T03:56:50;2.20;99.90
48264;DHT22;34086;51.076;13.722;2022-12-10T03:57:51;2.20;99.90
48264;DHT22;34086;51.076;13.722;2022-12-10T03:58:51;2.20;99.90
48264;DHT22;34086;51.076;13.722;2022-12-10T03:59:52;2.20;99.90
48264;DHT22;34086;51.076;13.722;2022-12-10T04:00:53;2.20;99.90
48264;DHT22;34086;51.076;13.722;2022-12-10T04:01:53;2.20;99.90
48264;DHT22;34086;51.076;13.722;2022-12-10T04:02:54;2.20;99.90
48264;DHT22;34086;51.076;13.722;2022-12-10T04:03:55;2.20;99.90
48264;DHT22;34086;51.076;13.722;2022-12-10T04:04:55;2.20;99.90
48264;DHT22;34086;51.076;13.722;2022-12-10T04:06:03;2.20;99.90
48264;DHT22;34086;51.076;13.722;2022-12-10T04:07:04;2.20;99.90
48264;DHT22;34086;51.076;13.722;2022-12-10T04:08:05;2.20;99.90
48264;DHT22;34086;51.076;13.722;2022-12-10T04:09:06;2.20;99.90
48264;DHT22;34086;51.076;13.722;2022-12-10T04:10:07;2.20;99.90
48264;DHT22;34086;51.076;13.722;2022-12-10T04:11:10;2.20;99.90
48264;DHT22;34086;51.076;13.722;2022-12-10T04:12:11;2.20;99.90
48264;DHT22;34086;51.076;13.722;2022-12-10T04:13:11;2.20;99.90
48264;DHT22;34086;51.076;13.722;2022-12-10T04:14:31;2.20;99.90
48264;DHT22;34086;51.076;13.722;2022-12-10T04:15:50;2.20;99.90
48264;DHT22;34086;51.076;13.722;2022-12-10T04:17:09;2.20;99.90
48264;DHT22;34086;51.076;13.722;2022-12-10T04:18:10;2.20;99.90
48264;DHT22;34086;51.076;13.722;2022-12-10T04:19:13;2.20;99.90
48264;DHT22;34086;51.076;13.722;2022-12-10T04:20:14;2.20;99.90
48264;DHT22;34086;51.076;13.722;2022-12-10T04:21:35;2.20;99.90
48264;DHT22;34086;51.076;13.722;2022-12-10T04:22:55;2.20;99.90
48264;DHT22;34086;51.076;13.722;2022-12-10T04:24:15;2.20;99.90
48264;DHT22;34086;51.076;13.722;2022-12-10T04:25:35;2.20;99.90
48264;DHT22;34086;51.076;13.722;2022-12-10T04:26:55;2.20;99.90
48264;DHT22;34086;51.076;13.722;2022-12-10T04:27:56;2.20;99.90
48264;DHT22;34086;51.076;13.722;2022-12-10T04:28:57;2.20;99.90
48264;DHT22;34086;51.076;13.722;2022-12-10T04:29:59;2.20;99.90
48264;DHT22;34086;51.076;13.722;2022-12-10T04:31:00;2.30;99.90
48264;DHT22;34086;51.076;13.722;2022-12-10T04:32:00;2.20;99.90
48264;DHT22;34086;51.076;13.722;2022-12-10T04:33:01;2.20;99.90
48264;DHT22;34086;51.076;13.722;2022-12-10T04:34:02;2.20;99.90
48264;DHT22;34086;51.076;13.722;2022-12-10T04:35:03;2.20;99.90
48264;DHT22;34086;51.076;13.722;2022-12-10T04:36:04;2.20;99.90
48264;DHT22;34086;51.076;13.722;2022-12-10T04:37:05;2.20;99.90
48264;DHT22;34086;51.076;13.722;2022-12-10T04:38:06;2.20;99.90
48264;DHT22;34086;51.076;13.722;2022-12-10T04:39:07;2.20;99.90
48264;DHT22;34086;51.076;13.722;2022-12-10T04:40:08;2.20;99.90
48264;DHT22;34086;51.076;13.722;2022-12-10T04:41:09;2.20;99.90
48264;DHT22;34086;51.076;13.722;2022-12-10T04:42:16;2.20;99.90
48264;DHT22;34086;51.076;13.722;2022-12-10T04:43:16;2.20;99.90
48264;DHT22;34086;51.076;13.722;2022-12-10T04:44:18;2.20;99.90
48264;DHT22;34086;51.076;13.722;2022-12-10T04:45:19;2.20;99.90
48264;DHT22;34086;51.076;13.722;2022-12-10T04:46:20;2.20;99.90
48264;DHT22;34086;51.076;13.722;2022-12-10T04:47:20;2.20;99.90
48264;DHT22;34086;51.076;13.722;2022-12-10T04:48:21;2.20;99.90
48264;DHT22;34086;51.076;13.722;2022-12-10T04:49:22;2.10;99.90
48264;DHT22;34086;51.076;13.722;2022-12-10T04:50:23;2.10;99.90
48264;DHT22;34086;51.076;13.722;2022-12-10T04:51:23;2.10;99.90
48264;DHT22;34086;51.076;13.722;2022-12-10T04:52:24;2.10;99.90
48264;DHT22;34086;51.076;13.722;2022-12-10T04:53:25;2.10;99.90
48264;DHT22;34086;51.076;13.722;2022-12-10T04:54:26;2.10;99.90
48264;DHT22;34086;51.076;13.722;2022-12-10T04:55:27;2.10;99.90
48264;DHT22;34086;51.076;13.722;2022-12-10T04:56:28;2.10;99.90
48264;DHT22;34086;51.076;13.722;2022-12-10T04:57:29;2.10;99.90
48264;DHT22;34086;51.076;13.722;2022-12-10T04:58:30;2.10;99.90
48264;DHT22;34086;51.076;13.722;2022-12-10T04:59:31;2.10;99.90
48264;DHT22;34086;51.076;13.722;2022-12-10T05:00:32;2.10;99.90
48264;DHT22;34086;51.076;13.722;2022-12-10T05:01:33;2.10;99.90
48264;DHT22;34086;51.076;13.722;2022-12-10T05:02:33;2.10;99.90
48264;DHT22;34086;51.076;13.722;2022-12-10T05:03:34;2.10;99.90
48264;DHT22;34086;51.076;13.722;2022-12-10T05:04:35;2.10;99.90
48264;DHT22;34086;51.076;13.722;2022-12-10T05:05:36;2.10;99.90
48264;DHT22;34086;51.076;13.722;2022-12-10T05:06:37;2.10;99.90
48264;DHT22;34086;51.076;13.722;2022-12-10T05:07:37;2.20;99.90
48264;DHT22;34086;51.076;13.722;2022-12-10T05:08:39;2.10;99.90
48264;DHT22;34086;51.076;13.722;2022-12-10T05:09:40;2.20;99.90
48264;DHT22;34086;51.076;13.722;2022-12-10T05:10:40;2.20;99.90
48264;DHT22;34086;51.076;13.722;2022-12-10T05:11:41;2.20;99.90
48264;DHT22;34086;51.076;13.722;2022-12-10T05:12:44;2.20;99.90
48264;DHT22;34086;51.076;13.722;2022-12-10T05:13:45;2.20;99.90
48264;DHT22;34086;51.076;13.722;2022-12-10T05:14:46;2.20;99.90
48264;DHT22;34086;51.076;13.722;2022-12-10T05:15:47;2.20;99.90
48264;DHT22;34086;51.076;13.722;2022-12-10T05:16:49;2.10;99.90
48264;DHT22;34086;51.076;13.722;2022-12-10T05:17:51;2.10;99.90
48264;DHT22;34086;51.076;13.722;2022-12-10T05:18:53;2.10;99.90
48264;DHT22;34086;51.076;13.722;2022-12-10T05:19:54;2.10;99.90
48264;DHT22;34086;51.076;13.722;2022-12-10T05:20:58;2.10;99.90
48264;DHT22;34086;51.076;13.722;2022-12-10T05:21:59;2.10;99.90
48264;DHT22;34086;51.076;13.722;2022-12-10T05:23:18;2.10;99.90
48264;DHT22;34086;51.076;13.722;2022-12-10T05:24:28;2.10;99.90
48264;DHT22;34086;51.076;13.722;2022-12-10T05:25:28;2.10;99.90
48264;DHT22;34086;51.076;13.722;2022-12-10T05:26:29;2.20;99.90
48264;DHT22;34086;51.076;13.722;2022-12-10T05:27:33;2.20;99.90
48264;DHT22;34086;51.076;13.722;2022-12-10T05:28:40;2.20;99.90
48264;DHT22;34086;51.076;13.722;2022-12-10T05:29:41;2.20;99.90
48264;DHT22;34086;51.076;13.722;2022-12-10T05:30:41;2.20;99.90
48264;DHT22;34086;51.076;13.722;2022-12-10T05:31:42;2.20;99.90
48264;DHT22;34086;51.076;13.722;2022-12-10T05:32:42;2.10;99.90
48264;DHT22;34086;51.076;13.722;2022-12-10T05:33:43;2.10;99.90
48264;DHT22;34086;51.076;13.722;2022-12-10T05:34:44;2.10;99.90
48264;DHT22;34086;51.076;13.722;2022-12-10T05:35:57;2.10;99.90
48264;DHT22;34086;51.076;13.722;2022-12-10T05:36:58;2.10;99.90
48264;DHT22;34086;51.076;13.722;2022-12-10T05:37:59;2.10;99.90
48264;DHT22;34086;51.076;13.722;2022-12-10T05:39:00;2.10;99.90
48264;DHT22;34086;51.076;13.722;2022-12-10T05:40:01;2.10;99.90
48264;DHT22;34086;51.076;13.722;2022-12-10T05:41:06;2.10;99.90
48264;DHT22;34086;51.076;13.722;2022-12-10T05:42:08;2.10;99.90
48264;DHT22;34086;51.076;13.722;2022-12-10T05:43:08;2.10;99.90
48264;DHT22;34086;51.076;13.722;2022-12-10T05:44:09;2.10;99.90
48264;DHT22;34086;51.076;13.722;2022-12-10T05:45:10;2.10;99.90
48264;DHT22;34086;51.076;13.722;2022-12-10T05:46:19;2.10;99.90
48264;DHT22;34086;51.076;13.722;2022-12-10T05:47:20;2.10;99.90
48264;DHT22;34086;51.076;13.722;2022-12-10T05:48:21;2.10;99.90
48264;DHT22;34086;51.076;13.722;2022-12-10T05:49:22;2.10;99.90
48264;DHT22;34086;51.076;13.722;2022-12-10T05:50:22;2.10;99.90
48264;DHT22;34086;51.076;13.722;2022-12-10T05:51:25;2.10;99.90
48264;DHT22;34086;51.076;13.722;2022-12-10T05:52:26;2.10;99.90
48264;DHT22;34086;51.076;13.722;2022-12-10T05:53:27;2.10;99.90
48264;DHT22;34086;51.076;13.722;2022-12-10T05:54:27;2.10;99.90
48264;DHT22;34086;51.076;13.722;2022-12-10T05:55:28;2.10;99.90
48264;DHT22;34086;51.076;13.722;2022-12-10T05:56:29;2.10;99.90
48264;DHT22;34086;51.076;13.722;2022-12-10T05:57:30;2.10;99.90
48264;DHT22;34086;51.076;13.722;2022-12-10T05:58:31;2.10;99.90
48264;DHT22;34086;51.076;13.722;2022-12-10T05:59:31;2.10;99.90
48264;DHT22;34086;51.076;13.722;2022-12-10T06:00:32;2.10;99.90
48264;DHT22;34086;51.076;13.722;2022-12-10T06:01:34;2.10;99.90
48264;DHT22;34086;51.076;13.722;2022-12-10T06:02:35;2.20;99.90
48264;DHT22;34086;51.076;13.722;2022-12-10T06:03:36;2.20;99.90
48264;DHT22;34086;51.076;13.722;2022-12-10T06:04:37;2.20;99.90
48264;DHT22;34086;51.076;13.722;2022-12-10T06:05:38;2.10;99.90
48264;DHT22;34086;51.076;13.722;2022-12-10T06:06:40;2.10;99.90
48264;DHT22;34086;51.076;13.722;2022-12-10T06:07:41;2.10;99.90
48264;DHT22;34086;51.076;13.722;2022-12-10T06:08:41;2.10;99.90
48264;DHT22;34086;51.076;13.722;2022-12-10T06:09:42;2.10;99.90
48264;DHT22;34086;51.076;13.722;2022-12-10T06:10:43;2.10;99.90
48264;DHT22;34086;51.076;13.722;2022-12-10T06:11:44;2.10;99.90
48264;DHT22;34086;51.076;13.722;2022-12-10T06:12:45;2.10;99.90
48264;DHT22;34086;51.076;13.722;2022-12-10T06:13:46;2.10;99.90
48264;DHT22;34086;51.076;13.722;2022-12-10T06:14:47;2.00;99.90
48264;DHT22;34086;51.076;13.722;2022-12-10T06:15:47;2.00;99.90
48264;DHT22;34086;51.076;13.722;2022-12-10T06:16:48;2.10;99.90
48264;DHT22;34086;51.076;13.722;2022-12-10T06:17:49;2.10;99.90
48264;DHT22;34086;51.076;13.722;2022-12-10T06:18:49;2.10;99.90
48264;DHT22;34086;51.076;13.722;2022-12-10T06:19:50;2.10;99.90
48264;DHT22;34086;51.076;13.722;2022-12-10T06:20:51;2.10;99.90
48264;DHT22;34086;51.076;13.722;2022-12-10T06:21:51;2.10;99.90
48264;DHT22;34086;51.076;13.722;2022-12-10T06:22:52;2.10;99.90
48264;DHT22;34086;51.076;13.722;2022-12-10T06:23:55;2.10;99.90
48264;DHT22;34086;51.076;13.722;2022-12-10T06:24:56;2.00;99.90
48264;DHT22;34086;51.076;13.722;2022-12-10T06:25:56;2.00;99.90
48264;DHT22;34086;51.076;13.722;2022-12-10T06:26:57;2.00;99.90
48264;DHT22;34086;51.076;13.722;2022-12-10T06:27:58;2.00;99.90
48264;DHT22;34086;51.076;13.722;2022-12-10T06:28:59;2.00;99.90
48264;DHT22;34086;51.076;13.722;2022-12-10T06:30:00;2.00;99.90
48264;DHT22;34086;51.076;13.722;2022-12-10T06:31:01;2.00;99.90
48264;DHT22;34086;51.076;13.722;2022-12-10T06:32:02;2.00;99.90
48264;DHT22;34086;51.076;13.722;2022-12-10T06:33:03;2.00;99.90
48264;DHT22;34086;51.076;13.722;2022-12-10T06:34:03;2.00;99.90
48264;DHT22;34086;51.076;13.722;2022-12-10T06:35:05;2.00;99.90
48264;DHT22;34086;51.076;13.722;2022-12-10T06:36:09;2.00;99.90
48264;DHT22;34086;51.076;13.722;2022-12-10T06:37:10;2.00;99.90
48264;DHT22;34086;51.076;13.722;2022-12-10T06:38:11;2.00;99.90
48264;DHT22;34086;51.076;13.722;2022-12-10T06:39:11;2.00;99.90
48264;DHT22;34086;51.076;13.722;2022-12-10T06:40:12;2.00;99.90
48264;DHT22;34086;51.076;13.722;2022-12-10T06:41:14;2.00;99.90
48264;DHT22;34086;51.076;13.722;2022-12-10T06:42:15;2.00;99.90
48264;DHT22;34086;51.076;13.722;2022-12-10T06:43:15;2.10;99.90
48264;DHT22;34086;51.076;13.722;2022-12-10T06:44:16;2.00;99.90
48264;DHT22;34086;51.076;13.722;2022-12-10T06:45:17;2.00;99.90
48264;DHT22;34086;51.076;13.722;2022-12-10T06:46:20;2.00;99.90
48264;DHT22;34086;51.076;13.722;2022-12-10T06:47:20;2.00;99.90
48264;DHT22;34086;51.076;13.722;2022-12-10T06:48:21;2.00;99.90
48264;DHT22;34086;51.076;13.722;2022-12-10T06:49:22;2.00;99.90
48264;DHT22;34086;51.076;13.722;2022-12-10T06:50:26;2.00;99.90
48264;DHT22;34086;51.076;13.722;2022-12-10T06:51:26;2.00;99.90
48264;DHT22;34086;51.076;13.722;2022-12-10T06:52:27;2.00;99.90
48264;DHT22;34086;51.076;13.722;2022-12-10T06:53:28;2.00;99.90
48264;DHT22;34086;51.076;13.722;2022-12-10T06:54:30;2.00;99.90
48264;DHT22;34086;51.076;13.722;2022-12-10T06:55:31;2.00;99.90
48264;DHT22;34086;51.076;13.722;2022-12-10T06:56:31;1.90;99.90
48264;DHT22;34086;51.076;13.722;2022-12-10T06:57:32;2.00;99.90
48264;DHT22;34086;51.076;13.722;2022-12-10T06:58:38;2.00;99.90